sensor_id;sensor_type;location;lat;lon;timestamp;temperature;humidity
9466;DHT22;4771;48.726;9.006;2023-01-28T00:00:54;2.00;99.90
9466;DHT22;4771;48.726;9.006;2023-01-28T00:03:21;2.00;99.90
9466;DHT22;4771;48.726;9.006;2023-01-28T00:05:47;2.10;99.90
9466;DHT22;4771;48.726;9.006;2023-01-28T00:08:14;2.00;99.90
9466;DHT22;4771;48.726;9.006;2023-01-28T00:10:41;2.00;99.90
9466;DHT22;4771;48.726;9.006;2023-01-28T00:13:11;2.10;99.90
9466;DHT22;4771;48.726;9.006;2023-01-28T00:15:39;1.90;99.90
9466;DHT22;4771;48.726;9.006;2023-01-28T00:18:06;1.90;99.90
9466;DHT22;4771;48.726;9.006;2023-01-28T00:20:33;1.90;99.90
9466;DHT22;4771;48.726;9.006;2023-01-28T00:23:00;1.70;99.90
9466;DHT22;4771;48.726;9.006;2023-01-28T00:25:28;1.70;99.90
9466;DHT22;4771;48.726;9.006;2023-01-28T00:27:54;1.60;99.90
9466;DHT22;4771;48.726;9.006;2023-01-28T00:30:23;1.60;99.90
9466;DHT22;4771;48.726;9.006;2023-01-28T00:32:49;1.70;99.90
9466;DHT22;4771;48.726;9.006;2023-01-28T00:35:16;1.70;99.90
9466;DHT22;4771;48.726;9.006;2023-01-28T00:37:44;1.90;99.90
9466;DHT22;4771;48.726;9.006;2023-01-28T00:40:12;1.90;99.90
9466;DHT22;4771;48.726;9.006;2023-01-28T00:42:39;1.80;99.90
9466;DHT22;4771;48.726;9.006;2023-01-28T00:45:06;2.00;99.90
9466;DHT22;4771;48.726;9.006;2023-01-28T00:47:35;1.90;99.90
9466;DHT22;4771;48.726;9.006;2023-01-28T00:50:02;1.70;99.90
9466;DHT22;4771;48.726;9.006;2023-01-28T00:52:29;1.70;99.90
9466;DHT22;4771;48.726;9.006;2023-01-28T00:54:56;1.70;99.90
9466;DHT22;4771;48.726;9.006;2023-01-28T00:57:23;1.70;99.90
9466;DHT22;4771;48.726;9.006;2023-01-28T00:59:50;1.80;99.90
9466;DHT22;4771;48.726;9.006;2023-01-28T01:02:16;1.90;99.90
9466;DHT22;4771;48.726;9.006;2023-01-28T01:04:45;1.90;99.90
9466;DHT22;4771;48.726;9.006;2023-01-28T01:07:21;1.90;99.90
9466;DHT22;4771;48.726;9.006;2023-01-28T01:09:57;1.90;99.90
9466;DHT22;4771;48.726;9.006;2023-01-28T01:12:24;1.90;99.90
9466;DHT22;4771;48.726;9.006;2023-01-28T01:14:51;1.90;99.90
9466;DHT22;4771;48.726;9.006;2023-01-28T01:17:18;1.70;99.90
9466;DHT22;4771;48.726;9.006;2023-01-28T01:19:47;1.70;99.90
9466;DHT22;4771;48.726;9.006;2023-01-28T01:22:13;1.60;99.90
9466;DHT22;4771;48.726;9.006;2023-01-28T01:24:40;1.70;99.90
9466;DHT22;4771;48.726;9.006;2023-01-28T01:27:07;1.80;99.90
9466;DHT22;4771;48.726;9.006;2023-01-28T01:29:34;1.80;99.90
9466;DHT22;4771;48.726;9.006;2023-01-28T01:32:01;1.90;99.90
9466;DHT22;4771;48.726;9.006;2023-01-28T01:34:28;2.00;99.90
9466;DHT22;4771;48.726;9.006;2023-01-28T01:36:56;2.00;99.90
9466;DHT22;4771;48.726;9.006;2023-01-28T01:39:23;2.10;99.90
9466;DHT22;4771;48.726;9.006;2023-01-28T01:41:50;2.10;99.90
9466;DHT22;4771;48.726;9.006;2023-01-28T01:44:52;2.10;99.90
9466;DHT22;4771;48.726;9.006;2023-01-28T01:47:21;2.10;99.90
9466;DHT22;4771;48.726;9.006;2023-01-28T01:49:49;2.10;99.90
9466;DHT22;4771;48.726;9.006;2023-01-28T01:52:23;2.10;99.90
9466;DHT22;4771;48.726;9.006;2023-01-28T01:54:54;2.10;99.90
9466;DHT22;4771;48.726;9.006;2023-01-28T01:57:28;2.20;99.90
9466;DHT22;4771;48.726;9.006;2023-01-28T01:59:57;2.20;99.90
9466;DHT22;4771;48.726;9.006;2023-01-28T02:02:32;2.20;99.90
9466;DHT22;4771;48.726;9.006;2023-01-28T02:05:01;2.30;99.90
9466;DHT22;4771;48.726;9.006;2023-01-28T02:07:30;2.30;99.90
9466;DHT22;4771;48.726;9.006;2023-01-28T02:09:57;2.30;99.90
9466;DHT22;4771;48.726;9.006;2023-01-28T02:12:27;2.30;99.90
9466;DHT22;4771;48.726;9.006;2023-01-28T02:15:00;2.10;99.90
9466;DHT22;4771;48.726;9.006;2023-01-28T02:17:28;2.20;99.90
9466;DHT22;4771;48.726;9.006;2023-01-28T02:19:58;2.20;99.90
9466;DHT22;4771;48.726;9.006;2023-01-28T02:26:04;2.10;99.90
9466;DHT22;4771;48.726;9.006;2023-01-28T02:28:37;2.10;99.90
9466;DHT22;4771;48.726;9.006;2023-01-28T02:31:11;2.10;99.90
9466;DHT22;4771;48.726;9.006;2023-01-28T02:33:44;2.00;99.90
9466;DHT22;4771;48.726;9.006;2023-01-28T02:36:20;1.90;99.90
9466;DHT22;4771;48.726;9.006;2023-01-28T02:38:51;2.00;99.90
9466;DHT22;4771;48.726;9.006;2023-01-28T02:41:22;2.00;99.90
9466;DHT22;4771;48.726;9.006;2023-01-28T02:43:52;2.10;99.90
9466;DHT22;4771;48.726;9.006;2023-01-28T02:46:21;2.00;99.90
9466;DHT22;4771;48.726;9.006;2023-01-28T02:49:08;2.10;99.90
9466;DHT22;4771;48.726;9.006;2023-01-28T02:51:52;2.10;99.90
9466;DHT22;4771;48.726;9.006;2023-01-28T02:54:31;2.10;99.90
9466;DHT22;4771;48.726;9.006;2023-01-28T02:57:08;2.10;99.90
9466;DHT22;4771;48.726;9.006;2023-01-28T02:59:43;2.10;99.90
9466;DHT22;4771;48.726;9.006;2023-01-28T03:02:20;2.10;99.90
9466;DHT22;4771;48.726;9.006;2023-01-28T03:04:52;2.20;99.90
9466;DHT22;4771;48.726;9.006;2023-01-28T03:07:26;2.10;99.90
9466;DHT22;4771;48.726;9.006;2023-01-28T03:09:55;2.10;99.90
9466;DHT22;4771;48.726;9.006;2023-01-28T03:12:25;2.10;99.90
9466;DHT22;4771;48.726;9.006;2023-01-28T03:15:16;2.10;99.90
9466;DHT22;4771;48.726;9.006;2023-01-28T03:18:03;2.10;99.90
9466;DHT22;4771;48.726;9.006;2023-01-28T03:20:53;2.10;99.90
9466;DHT22;4771;48.726;9.006;2023-01-28T03:23:43;2.20;99.90
9466;DHT22;4771;48.726;9.006;2023-01-28T03:26:31;2.20;99.90
9466;DHT22;4771;48.726;9.006;2023-01-28T03:29:20;2.10;99.90
9466;DHT22;4771;48.726;9.006;2023-01-28T03:32:07;2.00;99.90
9466;DHT22;4771;48.726;9.006;2023-01-28T03:34:52;2.00;99.90
9466;DHT22;4771;48.726;9.006;2023-01-28T03:37:36;2.00;99.90
9466;DHT22;4771;48.726;9.006;2023-01-28T03:40:04;2.10;99.90
9466;DHT22;4771;48.726;9.006;2023-01-28T03:42:32;2.20;99.90
9466;DHT22;4771;48.726;9.006;2023-01-28T03:44:59;2.10;99.90
9466;DHT22;4771;48.726;9.006;2023-01-28T03:47:30;2.10;99.90
9466;DHT22;4771;48.726;9.006;2023-01-28T03:49:58;2.20;99.90
9466;DHT22;4771;48.726;9.006;2023-01-28T03:52:28;2.20;99.90
9466;DHT22;4771;48.726;9.006;2023-01-28T03:54:55;2.10;99.90
9466;DHT22;4771;48.726;9.006;2023-01-28T03:57:24;2.20;99.90
9466;DHT22;4771;48.726;9.006;2023-01-28T03:59:51;2.20;99.90
9466;DHT22;4771;48.726;9.006;2023-01-28T04:02:20;2.20;99.90
9466;DHT22;4771;48.726;9.006;2023-01-28T04:04:48;2.20;99.90
9466;DHT22;4771;48.726;9.006;2023-01-28T04:07:15;2.20;99.90
9466;DHT22;4771;48.726;9.006;2023-01-28T04:09:43;2.20;99.90
9466;DHT22;4771;48.726;9.006;2023-01-28T04:12:10;2.20;99.90
9466;DHT22;4771;48.726;9.006;2023-01-28T04:14:37;2.20;99.90
9466;DHT22;4771;48.726;9.006;2023-01-28T04:17:05;2.20;99.90
9466;DHT22;4771;48.726;9.006;2023-01-28T04:19:35;2.20;99.90
9466;DHT22;4771;48.726;9.006;2023-01-28T04:22:05;2.50;99.90
9466;DHT22;4771;48.726;9.006;2023-01-28T04:24:32;2.20;99.90
9466;DHT22;4771;48.726;9.006;2023-01-28T04:26:59;2.20;99.90
9466;DHT22;4771;48.726;9.006;2023-01-28T04:29:25;2.20;99.90
9466;DHT22;4771;48.726;9.006;2023-01-28T04:31:52;2.20;99.90
9466;DHT22;4771;48.726;9.006;2023-01-28T04:34:19;2.10;99.90
9466;DHT22;4771;48.726;9.006;2023-01-28T04:36:46;2.10;99.90
9466;DHT22;4771;48.726;9.006;2023-01-28T04:39:14;1.10;99.90
9466;DHT22;4771;48.726;9.006;2023-01-28T04:41:41;2.10;99.90
9466;DHT22;4771;48.726;9.006;2023-01-28T04:44:08;2.00;99.90
9466;DHT22;4771;48.726;9.006;2023-01-28T04:46:35;2.00;99.90
9466;DHT22;4771;48.726;9.006;2023-01-28T04:49:02;2.00;99.90
9466;DHT22;4771;48.726;9.006;2023-01-28T04:51:29;2.00;99.90
9466;DHT22;4771;48.726;9.006;2023-01-28T04:53:56;1.90;99.90
9466;DHT22;4771;48.726;9.006;2023-01-28T04:56:24;1.90;99.90
9466;DHT22;4771;48.726;9.006;2023-01-28T04:58:51;1.80;99.90
9466;DHT22;4771;48.726;9.006;2023-01-28T05:01:17;1.60;99.90
9466;DHT22;4771;48.726;9.006;2023-01-28T05:03:44;1.70;99.90
9466;DHT22;4771;48.726;9.006;2023-01-28T05:06:11;1.60;99.90
9466;DHT22;4771;48.726;9.006;2023-01-28T05:08:38;1.60;99.90
9466;DHT22;4771;48.726;9.006;2023-01-28T05:11:05;1.60;99.90
9466;DHT22;4771;48.726;9.006;2023-01-28T05:13:33;1.60;99.90
9466;DHT22;4771;48.726;9.006;2023-01-28T05:16:00;1.50;99.90
9466;DHT22;4771;48.726;9.006;2023-01-28T05:18:26;1.50;99.90
9466;DHT22;4771;48.726;9.006;2023-01-28T05:20:53;1.50;99.90
9466;DHT22;4771;48.726;9.006;2023-01-28T05:23:20;1.60;99.90
9466;DHT22;4771;48.726;9.006;2023-01-28T05:25:47;1.70;99.90
9466;DHT22;4771;48.726;9.006;2023-01-28T05:28:14;1.70;99.90
9466;DHT22;4771;48.726;9.006;2023-01-28T05:30:42;1.60;99.90
9466;DHT22;4771;48.726;9.006;2023-01-28T05:33:09;1.60;99.90
9466;DHT22;4771;48.726;9.006;2023-01-28T05:35:36;1.50;99.90
9466;DHT22;4771;48.726;9.006;2023-01-28T05:38:03;1.50;99.90
9466;DHT22;4771;48.726;9.006;2023-01-28T05:40:30;1.70;99.90
9466;DHT22;4771;48.726;9.006;2023-01-28T05:42:57;1.60;99.90
9466;DHT22;4771;48.726;9.006;2023-01-28T05:45:23;1.50;99.90
9466;DHT22;4771;48.726;9.006;2023-01-28T05:47:51;1.60;99.90
9466;DHT22;4771;48.726;9.006;2023-01-28T05:50:19;1.40;99.90
9466;DHT22;4771;48.726;9.006;2023-01-28T05:52:45;1.50;99.90
9466;DHT22;4771;48.726;9.006;2023-01-28T05:55:12;1.50;99.90
9466;DHT22;4771;48.726;9.006;2023-01-28T05:57:39;1.60;99.90
9466;DHT22;4771;48.726;9.006;2023-01-28T06:00:07;1.60;99.90
9466;DHT22;4771;48.726;9.006;2023-01-28T06:02:34;1.70;99.90
9466;DHT22;4771;48.726;9.006;2023-01-28T06:05:03;1.80;99.90
9466;DHT22;4771;48.726;9.006;2023-01-28T06:07:30;1.80;99.90
9466;DHT22;4771;48.726;9.006;2023-01-28T06:09:56;1.90;99.90
9466;DHT22;4771;48.726;9.006;2023-01-28T06:12:23;2.00;99.90
9466;DHT22;4771;48.726;9.006;2023-01-28T06:14:50;2.00;99.90
9466;DHT22;4771;48.726;9.006;2023-01-28T06:17:17;2.10;99.90
9466;DHT22;4771;48.726;9.006;2023-01-28T06:19:44;2.20;99.90
9466;DHT22;4771;48.726;9.006;2023-01-28T06:22:12;2.10;99.90
9466;DHT22;4771;48.726;9.006;2023-01-28T06:24:39;2.10;99.90
9466;DHT22;4771;48.726;9.006;2023-01-28T06:27:06;2.10;99.90
9466;DHT22;4771;48.726;9.006;2023-01-28T06:29:32;1.30;99.90
9466;DHT22;4771;48.726;9.006;2023-01-28T06:32:00;2.20;99.90
9466;DHT22;4771;48.726;9.006;2023-01-28T06:34:26;2.30;99.90
9466;DHT22;4771;48.726;9.006;2023-01-28T06:36:53;2.20;99.90
9466;DHT22;4771;48.726;9.006;2023-01-28T06:39:21;2.30;99.90
9466;DHT22;4771;48.726;9.006;2023-01-28T06:41:49;2.30;99.90
9466;DHT22;4771;48.726;9.006;2023-01-28T06:44:16;2.30;99.90
9466;DHT22;4771;48.726;9.006;2023-01-28T06:46:42;2.20;99.90
9466;DHT22;4771;48.726;9.006;2023-01-28T06:49:09;2.20;99.90
9466;DHT22;4771;48.726;9.006;2023-01-28T06:51:36;2.10;99.90
9466;DHT22;4771;48.726;9.006;2023-01-28T06:54:03;2.20;99.90
9466;DHT22;4771;48.726;9.006;2023-01-28T06:56:31;2.20;99.90
9466;DHT22;4771;48.726;9.006;2023-01-28T06:58:58;2.20;99.90
9466;DHT22;4771;48.726;9.006;2023-01-28T07:01:25;2.20;99.90
9466;DHT22;4771;48.726;9.006;2023-01-28T07:03:52;2.30;99.90
9466;DHT22;4771;48.726;9.006;2023-01-28T07:06:19;2.20;99.90
9466;DHT22;4771;48.726;9.006;2023-01-28T07:08:46;2.20;99.90
9466;DHT22;4771;48.726;9.006;2023-01-28T07:11:14;2.20;99.90
9466;DHT22;4771;48.726;9.006;2023-01-28T07:13:42;2.10;99.90
9466;DHT22;4771;48.726;9.006;2023-01-28T07:16:09;2.10;99.90
9466;DHT22;4771;48.726;9.006;2023-01-28T07:18:36;2.00;99.90
9466;DHT22;4771;48.726;9.006;2023-01-28T07:21:03;2.00;99.90
9466;DHT22;4771;48.726;9.006;2023-01-28T07:23:30;2.00;99.90
9466;DHT22;4771;48.726;9.006;2023-01-28T07:26:00;2.00;99.90
9466;DHT22;4771;48.726;9.006;2023-01-28T07:28:27;2.10;99.90
9466;DHT22;4771;48.726;9.006;2023-01-28T07:30:55;2.00;99.90
9466;DHT22;4771;48.726;9.006;2023-01-28T07:33:22;2.00;99.90
9466;DHT22;4771;48.726;9.006;2023-01-28T07:35:49;2.00;99.90
9466;DHT22;4771;48.726;9.006;2023-01-28T07:38:16;2.10;99.90
9466;DHT22;4771;48.726;9.006;2023-01-28T07:40:43;2.00;99.90
9466;DHT22;4771;48.726;9.006;2023-01-28T07:43:10;2.00;99.90
9466;DHT22;4771;48.726;9.006;2023-01-28T07:45:37;1.20;99.90
9466;DHT22;4771;48.726;9.006;2023-01-28T07:48:07;2.00;99.90
9466;DHT22;4771;48.726;9.006;2023-01-28T07:50:36;2.00;99.90
9466;DHT22;4771;48.726;9.006;2023-01-28T07:53:06;2.00;99.90
9466;DHT22;4771;48.726;9.006;2023-01-28T07:55:33;2.10;99.90
9466;DHT22;4771;48.726;9.006;2023-01-28T07:58:01;2.10;99.90
9466;DHT22;4771;48.726;9.006;2023-01-28T08:00:30;2.10;99.90
9466;DHT22;4771;48.726;9.006;2023-01-28T08:02:58;2.00;99.90
9466;DHT22;4771;48.726;9.006;2023-01-28T08:05:31;2.00;99.90
9466;DHT22;4771;48.726;9.006;2023-01-28T08:07:59;2.00;99.90
9466;DHT22;4771;48.726;9.006;2023-01-28T08:10:26;2.10;99.90
9466;DHT22;4771;48.726;9.006;2023-01-28T08:12:53;2.10;99.90
9466;DHT22;4771;48.726;9.006;2023-01-28T08:15:21;2.20;99.90
9466;DHT22;4771;48.726;9.006;2023-01-28T08:17:48;2.20;99.90
9466;DHT22;4771;48.726;9.006;2023-01-28T08:20:15;2.30;99.90
9466;DHT22;4771;48.726;9.006;2023-01-28T08:22:43;2.30;99.90
9466;DHT22;4771;48.726;9.006;2023-01-28T08:25:10;2.30;99.90
9466;DHT22;4771;48.726;9.006;2023-01-28T08:27:37;2.30;99.90
9466;DHT22;4771;48.726;9.006;2023-01-28T08:30:05;2.20;99.90
9466;DHT22;4771;48.726;9.006;2023-01-28T08:32:34;2.20;99.90
9466;DHT22;4771;48.726;9.006;2023-01-28T08:35:01;2.00;99.90
9466;DHT22;4771;48.726;9.006;2023-01-28T08:37:28;2.10;99.90
9466;DHT22;4771;48.726;9.006;2023-01-28T08:39:56;2.10;99.90
9466;DHT22;4771;48.726;9.006;2023-01-28T08:42:23;2.20;99.90
9466;DHT22;4771;48.726;9.006;2023-01-28T08:44:50;2.20;99.90
9466;DHT22;4771;48.726;9.006;2023-01-28T08:47:17;2.30;99.90
9466;DHT22;4771;48.726;9.006;2023-01-28T08:49:44;2.20;99.90
9466;DHT22;4771;48.726;9.006;2023-01-28T08:52:10;2.20;99.90
9466;DHT22;4771;48.726;9.006;2023-01-28T08:54:37;2.10;99.90
9466;DHT22;4771;48.726;9.006;2023-01-28T08:57:05;2.20;99.90
9466;DHT22;4771;48.726;9.006;2023-01-28T08:59:32;2.20;99.90
9466;DHT22;4771;48.726;9.006;2023-01-28T09:01:59;2.20;99.90
9466;DHT22;4771;48.726;9.006;2023-01-28T09:04:26;2.20;99.90
9466;DHT22;4771;48.726;9.006;2023-01-28T09:06:53;2.20;99.90
9466;DHT22;4771;48.726;9.006;2023-01-28T09:09:20;2.20;99.90
9466;DHT22;4771;48.726;9.006;2023-01-28T09:11:47;2.10;99.90
9466;DHT22;4771;48.726;9.006;2023-01-28T09:14:15;2.00;99.90
9466;DHT22;4771;48.726;9.006;2023-01-28T09:16:42;2.10;99.90
9466;DHT22;4771;48.726;9.006;2023-01-28T09:19:09;2.20;99.90
9466;DHT22;4771;48.726;9.006;2023-01-28T09:21:38;2.20;99.90
9466;DHT22;4771;48.726;9.006;2023-01-28T09:24:09;2.20;99.90
9466;DHT22;4771;48.726;9.006;2023-01-28T09:26:36;2.30;99.90
9466;DHT22;4771;48.726;9.006;2023-01-28T09:29:03;2.20;99.90
9466;DHT22;4771;48.726;9.006;2023-01-28T09:31:31;2.20;99.90
9466;DHT22;4771;48.726;9.006;2023-01-28T09:33:57;2.30;99.90
9466;DHT22;4771;48.726;9.006;2023-01-28T09:36:24;2.30;99.90
9466;DHT22;4771;48.726;9.006;2023-01-28T09:38:51;2.40;99.90
9466;DHT22;4771;48.726;9.006;2023-01-28T09:41:26;2.40;99.90
9466;DHT22;4771;48.726;9.006;2023-01-28T09:44:12;2.50;99.90
9466;DHT22;4771;48.726;9.006;2023-01-28T09:46:45;2.50;99.90
9466;DHT22;4771;48.726;9.006;2023-01-28T09:49:18;2.60;99.90
9466;DHT22;4771;48.726;9.006;2023-01-28T09:51:50;2.70;99.90
9466;DHT22;4771;48.726;9.006;2023-01-28T09:54:26;2.60;99.90
9466;DHT22;4771;48.726;9.006;2023-01-28T09:57:00;2.50;99.90
9466;DHT22;4771;48.726;9.006;2023-01-28T09:59:32;2.50;99.90
9466;DHT22;4771;48.726;9.006;2023-01-28T10:02:12;2.50;99.90
9466;DHT22;4771;48.726;9.006;2023-01-28T10:04:50;1.60;99.90
9466;DHT22;4771;48.726;9.006;2023-01-28T10:07:28;2.50;99.90
9466;DHT22;4771;48.726;9.006;2023-01-28T10:10:02;2.50;99.90
9466;DHT22;4771;48.726;9.006;2023-01-28T10:12:53;2.60;99.90
9466;DHT22;4771;48.726;9.006;2023-01-28T10:15:47;2.60;99.90
9466;DHT22;4771;48.726;9.006;2023-01-28T10:18:17;2.70;99.90
9466;DHT22;4771;48.726;9.006;2023-01-28T10:20:51;2.80;99.90
9466;DHT22;4771;48.726;9.006;2023-01-28T10:23:21;2.70;99.90
9466;DHT22;4771;48.726;9.006;2023-01-28T10:25:50;2.70;99.90
9466;DHT22;4771;48.726;9.006;2023-01-28T10:28:19;2.80;99.90
9466;DHT22;4771;48.726;9.006;2023-01-28T10:30:47;2.80;99.90
9466;DHT22;4771;48.726;9.006;2023-01-28T10:33:19;2.80;99.90
9466;DHT22;4771;48.726;9.006;2023-01-28T10:35:48;2.90;99.90
9466;DHT22;4771;48.726;9.006;2023-01-28T10:38:19;2.80;99.90
9466;DHT22;4771;48.726;9.006;2023-01-28T10:40:47;2.80;99.90
9466;DHT22;4771;48.726;9.006;2023-01-28T10:43:15;2.80;99.90
9466;DHT22;4771;48.726;9.006;2023-01-28T10:45:51;2.80;99.90
9466;DHT22;4771;48.726;9.006;2023-01-28T10:48:23;2.80;99.90
9466;DHT22;4771;48.726;9.006;2023-01-28T10:50:51;2.70;99.90
9466;DHT22;4771;48.726;9.006;2023-01-28T10:53:18;2.80;99.90
9466;DHT22;4771;48.726;9.006;2023-01-28T10:55:50;2.70;99.90
9466;DHT22;4771;48.726;9.006;2023-01-28T10:58:20;2.70;99.90
9466;DHT22;4771;48.726;9.006;2023-01-28T11:00:52;2.80;99.90
9466;DHT22;4771;48.726;9.006;2023-01-28T11:03:22;2.80;99.90
9466;DHT22;4771;48.726;9.006;2023-01-28T11:05:53;2.80;99.90
9466;DHT22;4771;48.726;9.006;2023-01-28T11:08:21;2.90;99.90
9466;DHT22;4771;48.726;9.006;2023-01-28T11:10:50;2.70;99.90
9466;DHT22;4771;48.726;9.006;2023-01-28T11:13:19;2.80;99.90
9466;DHT22;4771;48.726;9.006;2023-01-28T11:15:48;2.80;99.90
9466;DHT22;4771;48.726;9.006;2023-01-28T11:18:17;2.90;99.90
9466;DHT22;4771;48.726;9.006;2023-01-28T11:20:53;2.90;99.90
9466;DHT22;4771;48.726;9.006;2023-01-28T11:23:24;2.90;99.90
9466;DHT22;4771;48.726;9.006;2023-01-28T11:26:01;2.80;99.90
9466;DHT22;4771;48.726;9.006;2023-01-28T11:28:30;2.80;99.90
9466;DHT22;4771;48.726;9.006;2023-01-28T11:30:59;2.90;99.90
9466;DHT22;4771;48.726;9.006;2023-01-28T11:33:31;3.00;99.90
9466;DHT22;4771;48.726;9.006;2023-01-28T11:36:07;3.20;99.90
9466;DHT22;4771;48.726;9.006;2023-01-28T11:38:34;3.20;99.90
9466;DHT22;4771;48.726;9.006;2023-01-28T11:41:01;3.20;99.90
9466;DHT22;4771;48.726;9.006;2023-01-28T11:43:31;3.30;99.90
9466;DHT22;4771;48.726;9.006;2023-01-28T11:46:10;3.00;99.90
9466;DHT22;4771;48.726;9.006;2023-01-28T11:48:49;3.10;99.90
9466;DHT22;4771;48.726;9.006;2023-01-28T11:51:32;3.10;99.90
9466;DHT22;4771;48.726;9.006;2023-01-28T11:54:12;2.90;99.90
9466;DHT22;4771;48.726;9.006;2023-01-28T11:56:58;2.90;99.90
9466;DHT22;4771;48.726;9.006;2023-01-28T11:59:45;3.00;99.90
9466;DHT22;4771;48.726;9.006;2023-01-28T12:02:34;3.00;99.90
9466;DHT22;4771;48.726;9.006;2023-01-28T12:05:29;3.10;99.90
9466;DHT22;4771;48.726;9.006;2023-01-28T12:08:06;3.10;99.90
9466;DHT22;4771;48.726;9.006;2023-01-28T12:10:39;3.10;99.90
9466;DHT22;4771;48.726;9.006;2023-01-28T12:13:23;3.20;99.90
9466;DHT22;4771;48.726;9.006;2023-01-28T12:16:20;3.20;99.90
9466;DHT22;4771;48.726;9.006;2023-01-28T12:19:06;3.10;99.90
9466;DHT22;4771;48.726;9.006;2023-01-28T12:21:48;3.20;99.90
9466;DHT22;4771;48.726;9.006;2023-01-28T12:24:31;3.10;99.90
9466;DHT22;4771;48.726;9.006;2023-01-28T12:27:04;3.20;99.90
9466;DHT22;4771;48.726;9.006;2023-01-28T12:29:39;3.30;99.90
9466;DHT22;4771;48.726;9.006;2023-01-28T12:32:28;3.20;99.90
9466;DHT22;4771;48.726;9.006;2023-01-28T12:35:21;3.10;99.90
9466;DHT22;4771;48.726;9.006;2023-01-28T12:37:59;3.30;99.90
9466;DHT22;4771;48.726;9.006;2023-01-28T12:40:41;3.20;99.90
9466;DHT22;4771;48.726;9.006;2023-01-28T12:43:14;3.10;99.90
9466;DHT22;4771;48.726;9.006;2023-01-28T12:45:46;3.00;99.90
9466;DHT22;4771;48.726;9.006;2023-01-28T12:48:18;3.00;99.90
9466;DHT22;4771;48.726;9.006;2023-01-28T12:50:50;3.00;99.90
9466;DHT22;4771;48.726;9.006;2023-01-28T12:53:24;3.00;99.90
9466;DHT22;4771;48.726;9.006;2023-01-28T12:55:59;3.00;99.90
9466;DHT22;4771;48.726;9.006;2023-01-28T12:58:35;3.00;99.90
9466;DHT22;4771;48.726;9.006;2023-01-28T13:01:07;2.90;99.90
9466;DHT22;4771;48.726;9.006;2023-01-28T13:03:39;3.00;99.90
9466;DHT22;4771;48.726;9.006;2023-01-28T13:06:12;3.00;99.90
9466;DHT22;4771;48.726;9.006;2023-01-28T13:08:40;3.10;99.90
9466;DHT22;4771;48.726;9.006;2023-01-28T13:11:13;3.10;99.90
9466;DHT22;4771;48.726;9.006;2023-01-28T13:13:42;3.20;99.90
9466;DHT22;4771;48.726;9.006;2023-01-28T13:16:11;3.10;99.90
9466;DHT22;4771;48.726;9.006;2023-01-28T13:18:43;3.10;99.90
9466;DHT22;4771;48.726;9.006;2023-01-28T13:21:16;3.00;99.90
9466;DHT22;4771;48.726;9.006;2023-01-28T13:24:04;3.70;99.90
9466;DHT22;4771;48.726;9.006;2023-01-28T13:26:42;2.70;99.90
9466;DHT22;4771;48.726;9.006;2023-01-28T13:29:30;2.60;99.90
9466;DHT22;4771;48.726;9.006;2023-01-28T13:31:59;2.50;99.90
9466;DHT22;4771;48.726;9.006;2023-01-28T13:34:32;2.80;99.90
9466;DHT22;4771;48.726;9.006;2023-01-28T13:37:13;2.90;99.90
9466;DHT22;4771;48.726;9.006;2023-01-28T13:39:46;3.00;99.90
9466;DHT22;4771;48.726;9.006;2023-01-28T13:42:23;3.00;99.90
9466;DHT22;4771;48.726;9.006;2023-01-28T13:44:51;3.00;99.90
9466;DHT22;4771;48.726;9.006;2023-01-28T13:47:30;3.00;99.90
9466;DHT22;4771;48.726;9.006;2023-01-28T13:50:01;3.00;99.90
9466;DHT22;4771;48.726;9.006;2023-01-28T13:52:31;3.10;99.90
9466;DHT22;4771;48.726;9.006;2023-01-28T13:55:02;3.10;99.90
9466;DHT22;4771;48.726;9.006;2023-01-28T14:00:35;3.10;99.90
9466;DHT22;4771;48.726;9.006;2023-01-28T14:03:42;3.00;99.90
9466;DHT22;4771;48.726;9.006;2023-01-28T14:06:39;3.00;99.90
9466;DHT22;4771;48.726;9.006;2023-01-28T14:09:37;3.10;99.90
9466;DHT22;4771;48.726;9.006;2023-01-28T14:12:26;3.10;99.90
9466;DHT22;4771;48.726;9.006;2023-01-28T14:15:13;3.10;99.90
9466;DHT22;4771;48.726;9.006;2023-01-28T14:17:48;3.10;99.90
9466;DHT22;4771;48.726;9.006;2023-01-28T14:20:20;3.10;99.90
9466;DHT22;4771;48.726;9.006;2023-01-28T14:22:48;3.00;99.90
9466;DHT22;4771;48.726;9.006;2023-01-28T14:25:22;3.00;99.90
9466;DHT22;4771;48.726;9.006;2023-01-28T14:27:54;3.00;99.90
9466;DHT22;4771;48.726;9.006;2023-01-28T14:30:28;3.00;99.90
9466;DHT22;4771;48.726;9.006;2023-01-28T14:32:58;3.00;99.90
9466;DHT22;4771;48.726;9.006;2023-01-28T14:35:28;3.00;99.90
9466;DHT22;4771;48.726;9.006;2023-01-28T14:37:56;2.90;99.90
9466;DHT22;4771;48.726;9.006;2023-01-28T14:40:23;2.80;99.90
9466;DHT22;4771;48.726;9.006;2023-01-28T14:42:52;2.80;99.90
9466;DHT22;4771;48.726;9.006;2023-01-28T14:45:37;2.80;99.90
9466;DHT22;4771;48.726;9.006;2023-01-28T14:48:22;2.80;99.90
9466;DHT22;4771;48.726;9.006;2023-01-28T14:51:23;2.90;99.90
9466;DHT22;4771;48.726;9.006;2023-01-28T14:54:04;2.90;99.90
9466;DHT22;4771;48.726;9.006;2023-01-28T14:56:46;2.80;99.90
9466;DHT22;4771;48.726;9.006;2023-01-28T14:59:17;2.80;99.90
9466;DHT22;4771;48.726;9.006;2023-01-28T15:01:48;2.90;99.90
9466;DHT22;4771;48.726;9.006;2023-01-28T15:04:23;3.60;99.90
9466;DHT22;4771;48.726;9.006;2023-01-28T15:06:51;2.80;99.90
9466;DHT22;4771;48.726;9.006;2023-01-28T15:09:18;2.90;99.90
9466;DHT22;4771;48.726;9.006;2023-01-28T15:11:47;2.90;99.90
9466;DHT22;4771;48.726;9.006;2023-01-28T15:14:20;2.90;99.90
9466;DHT22;4771;48.726;9.006;2023-01-28T15:16:50;2.90;99.90
9466;DHT22;4771;48.726;9.006;2023-01-28T15:19:24;2.90;99.90
9466;DHT22;4771;48.726;9.006;2023-01-28T15:21:54;2.90;99.90
9466;DHT22;4771;48.726;9.006;2023-01-28T15:24:22;3.00;99.90
9466;DHT22;4771;48.726;9.006;2023-01-28T15:26:49;2.90;99.90
9466;DHT22;4771;48.726;9.006;2023-01-28T15:29:29;2.90;99.90
9466;DHT22;4771;48.726;9.006;2023-01-28T15:31:58;2.80;99.90
9466;DHT22;4771;48.726;9.006;2023-01-28T15:34:26;2.80;99.90
9466;DHT22;4771;48.726;9.006;2023-01-28T15:36:55;3.60;99.90
9466;DHT22;4771;48.726;9.006;2023-01-28T15:39:23;2.90;99.90
9466;DHT22;4771;48.726;9.006;2023-01-28T15:41:53;2.90;99.90
9466;DHT22;4771;48.726;9.006;2023-01-28T15:44:27;2.90;99.90
9466;DHT22;4771;48.726;9.006;2023-01-28T15:46:55;2.80;99.90
9466;DHT22;4771;48.726;9.006;2023-01-28T15:49:27;2.90;99.90
9466;DHT22;4771;48.726;9.006;2023-01-28T15:51:56;2.90;99.90
9466;DHT22;4771;48.726;9.006;2023-01-28T15:54:23;2.80;99.90
9466;DHT22;4771;48.726;9.006;2023-01-28T15:56:50;2.80;99.90
9466;DHT22;4771;48.726;9.006;2023-01-28T15:59:24;2.90;99.90
9466;DHT22;4771;48.726;9.006;2023-01-28T16:02:02;2.90;99.90
9466;DHT22;4771;48.726;9.006;2023-01-28T16:04:39;2.90;99.90
9466;DHT22;4771;48.726;9.006;2023-01-28T16:07:06;2.90;99.90
9466;DHT22;4771;48.726;9.006;2023-01-28T16:09:33;3.00;99.90
9466;DHT22;4771;48.726;9.006;2023-01-28T16:12:02;3.70;99.90
9466;DHT22;4771;48.726;9.006;2023-01-28T16:14:33;2.90;99.90
9466;DHT22;4771;48.726;9.006;2023-01-28T16:17:03;3.00;99.90
9466;DHT22;4771;48.726;9.006;2023-01-28T16:19:36;3.00;99.90
9466;DHT22;4771;48.726;9.006;2023-01-28T16:22:06;3.00;99.90
9466;DHT22;4771;48.726;9.006;2023-01-28T16:24:34;3.00;99.90
9466;DHT22;4771;48.726;9.006;2023-01-28T16:27:03;3.00;99.90
9466;DHT22;4771;48.726;9.006;2023-01-28T16:29:30;2.90;99.90
9466;DHT22;4771;48.726;9.006;2023-01-28T16:31:58;2.90;99.90
9466;DHT22;4771;48.726;9.006;2023-01-28T16:34:25;3.00;99.90
9466;DHT22;4771;48.726;9.006;2023-01-28T16:36:53;3.00;99.90
9466;DHT22;4771;48.726;9.006;2023-01-28T16:39:23;3.00;99.90
9466;DHT22;4771;48.726;9.006;2023-01-28T16:41:50;2.90;99.90
9466;DHT22;4771;48.726;9.006;2023-01-28T16:44:18;2.90;99.90
9466;DHT22;4771;48.726;9.006;2023-01-28T16:46:45;2.90;99.90
9466;DHT22;4771;48.726;9.006;2023-01-28T16:49:11;2.80;99.90